sensor_id;sensor_type;location;lat;lon;timestamp;P1;durP1;ratioP1;P2;durP2;ratioP2
8909;SDS011;4490;49.072;8.804;2023-05-20T00:01:03;6.87;;;5.23;;
8909;SDS011;4490;49.072;8.804;2023-05-20T00:03:29;7.47;;;5.70;;
8909;SDS011;4490;49.072;8.804;2023-05-20T00:05:54;6.97;;;5.37;;
8909;SDS011;4490;49.072;8.804;2023-05-20T00:08:20;6.80;;;6.10;;
8909;SDS011;4490;49.072;8.804;2023-05-20T00:10:46;7.00;;;5.53;;
8909;SDS011;4490;49.072;8.804;2023-05-20T00:13:11;6.67;;;5.70;;
8909;SDS011;4490;49.072;8.804;2023-05-20T00:15:37;8.20;;;5.77;;
8909;SDS011;4490;49.072;8.804;2023-05-20T00:18:03;7.23;;;6.00;;
8909;SDS011;4490;49.072;8.804;2023-05-20T00:20:28;6.97;;;6.27;;
8909;SDS011;4490;49.072;8.804;2023-05-20T00:22:54;6.97;;;5.87;;
8909;SDS011;4490;49.072;8.804;2023-05-20T00:25:20;6.83;;;6.10;;
8909;SDS011;4490;49.072;8.804;2023-05-20T00:27:46;6.57;;;5.93;;
8909;SDS011;4490;49.072;8.804;2023-05-20T00:30:11;6.87;;;6.10;;
8909;SDS011;4490;49.072;8.804;2023-05-20T00:32:37;6.70;;;6.03;;
8909;SDS011;4490;49.072;8.804;2023-05-20T00:35:03;8.80;;;6.60;;
8909;SDS011;4490;49.072;8.804;2023-05-20T00:37:29;7.20;;;6.50;;
8909;SDS011;4490;49.072;8.804;2023-05-20T00:39:55;8.67;;;6.63;;
8909;SDS011;4490;49.072;8.804;2023-05-20T00:42:24;8.60;;;6.70;;
8909;SDS011;4490;49.072;8.804;2023-05-20T00:44:51;8.43;;;6.33;;
8909;SDS011;4490;49.072;8.804;2023-05-20T00:47:17;7.13;;;6.43;;
8909;SDS011;4490;49.072;8.804;2023-05-20T00:49:45;6.47;;;5.80;;
8909;SDS011;4490;49.072;8.804;2023-05-20T00:52:12;6.93;;;6.23;;
8909;SDS011;4490;49.072;8.804;2023-05-20T00:54:39;6.53;;;5.93;;
8909;SDS011;4490;49.072;8.804;2023-05-20T00:57:05;8.60;;;5.83;;
8909;SDS011;4490;49.072;8.804;2023-05-20T00:59:35;6.77;;;6.00;;
8909;SDS011;4490;49.072;8.804;2023-05-20T01:02:02;7.93;;;5.97;;
8909;SDS011;4490;49.072;8.804;2023-05-20T01:04:31;6.87;;;5.83;;
8909;SDS011;4490;49.072;8.804;2023-05-20T01:06:57;7.40;;;6.33;;
8909;SDS011;4490;49.072;8.804;2023-05-20T01:09:25;8.10;;;6.00;;
8909;SDS011;4490;49.072;8.804;2023-05-20T01:14:29;7.63;;;5.70;;
8909;SDS011;4490;49.072;8.804;2023-05-20T01:17:00;8.60;;;6.67;;
8909;SDS011;4490;49.072;8.804;2023-05-20T01:19:43;6.63;;;5.93;;
8909;SDS011;4490;49.072;8.804;2023-05-20T01:22:09;6.60;;;5.93;;
8909;SDS011;4490;49.072;8.804;2023-05-20T01:24:40;8.07;;;6.23;;
8909;SDS011;4490;49.072;8.804;2023-05-20T01:27:07;7.50;;;6.20;;
8909;SDS011;4490;49.072;8.804;2023-05-20T01:29:34;6.40;;;5.80;;
8909;SDS011;4490;49.072;8.804;2023-05-20T01:32:02;6.60;;;6.00;;
8909;SDS011;4490;49.072;8.804;2023-05-20T01:34:51;7.40;;;5.87;;
8909;SDS011;4490;49.072;8.804;2023-05-20T01:37:17;7.40;;;6.70;;
8909;SDS011;4490;49.072;8.804;2023-05-20T01:39:44;6.80;;;5.90;;
8909;SDS011;4490;49.072;8.804;2023-05-20T01:42:11;9.43;;;6.13;;
8909;SDS011;4490;49.072;8.804;2023-05-20T01:44:39;6.83;;;5.90;;
8909;SDS011;4490;49.072;8.804;2023-05-20T01:47:05;7.23;;;6.00;;
8909;SDS011;4490;49.072;8.804;2023-05-20T01:49:31;5.90;;;5.40;;
8909;SDS011;4490;49.072;8.804;2023-05-20T01:51:56;6.23;;;5.63;;
8909;SDS011;4490;49.072;8.804;2023-05-20T01:54:22;6.17;;;5.53;;
8909;SDS011;4490;49.072;8.804;2023-05-20T01:56:48;6.33;;;5.47;;
8909;SDS011;4490;49.072;8.804;2023-05-20T01:59:14;6.87;;;5.57;;
8909;SDS011;4490;49.072;8.804;2023-05-20T02:01:40;6.07;;;5.47;;
8909;SDS011;4490;49.072;8.804;2023-05-20T02:04:05;6.93;;;5.30;;
8909;SDS011;4490;49.072;8.804;2023-05-20T02:06:31;6.33;;;5.50;;
8909;SDS011;4490;49.072;8.804;2023-05-20T02:08:56;8.60;;;5.47;;
8909;SDS011;4490;49.072;8.804;2023-05-20T02:11:22;6.70;;;5.47;;
8909;SDS011;4490;49.072;8.804;2023-05-20T02:13:48;7.23;;;5.67;;
8909;SDS011;4490;49.072;8.804;2023-05-20T02:16:15;6.80;;;5.50;;
8909;SDS011;4490;49.072;8.804;2023-05-20T02:18:40;6.90;;;5.47;;
8909;SDS011;4490;49.072;8.804;2023-05-20T02:21:06;6.20;;;5.20;;
8909;SDS011;4490;49.072;8.804;2023-05-20T02:23:32;5.73;;;5.17;;
8909;SDS011;4490;49.072;8.804;2023-05-20T02:25:58;6.33;;;5.40;;
8909;SDS011;4490;49.072;8.804;2023-05-20T02:28:24;5.67;;;5.17;;
8909;SDS011;4490;49.072;8.804;2023-05-20T02:30:49;6.27;;;5.63;;
8909;SDS011;4490;49.072;8.804;2023-05-20T02:33:15;7.73;;;5.33;;
8909;SDS011;4490;49.072;8.804;2023-05-20T02:35:41;7.83;;;5.47;;
8909;SDS011;4490;49.072;8.804;2023-05-20T02:38:09;6.30;;;5.63;;
8909;SDS011;4490;49.072;8.804;2023-05-20T02:40:37;5.73;;;5.20;;
8909;SDS011;4490;49.072;8.804;2023-05-20T02:43:03;6.97;;;5.13;;
8909;SDS011;4490;49.072;8.804;2023-05-20T02:45:29;8.37;;;5.70;;
8909;SDS011;4490;49.072;8.804;2023-05-20T02:47:55;6.20;;;5.43;;
8909;SDS011;4490;49.072;8.804;2023-05-20T02:50:20;6.57;;;5.53;;
8909;SDS011;4490;49.072;8.804;2023-05-20T02:52:46;5.80;;;5.20;;
8909;SDS011;4490;49.072;8.804;2023-05-20T02:55:12;5.63;;;5.07;;
8909;SDS011;4490;49.072;8.804;2023-05-20T02:57:38;6.43;;;5.27;;
8909;SDS011;4490;49.072;8.804;2023-05-20T03:00:04;9.17;;;5.13;;
8909;SDS011;4490;49.072;8.804;2023-05-20T03:02:37;7.67;;;5.17;;
8909;SDS011;4490;49.072;8.804;2023-05-20T03:05:03;6.03;;;5.17;;
8909;SDS011;4490;49.072;8.804;2023-05-20T03:07:29;6.87;;;5.40;;
8909;SDS011;4490;49.072;8.804;2023-05-20T03:09:55;7.47;;;5.13;;
8909;SDS011;4490;49.072;8.804;2023-05-20T03:12:23;6.67;;;4.90;;
8909;SDS011;4490;49.072;8.804;2023-05-20T03:14:50;5.63;;;4.93;;
8909;SDS011;4490;49.072;8.804;2023-05-20T03:17:19;5.57;;;4.97;;
8909;SDS011;4490;49.072;8.804;2023-05-20T03:19:47;7.53;;;5.30;;
8909;SDS011;4490;49.072;8.804;2023-05-20T03:22:12;5.20;;;4.70;;
8909;SDS011;4490;49.072;8.804;2023-05-20T03:24:38;7.10;;;5.13;;
8909;SDS011;4490;49.072;8.804;2023-05-20T03:27:04;6.63;;;5.10;;
8909;SDS011;4490;49.072;8.804;2023-05-20T03:29:30;5.60;;;4.77;;
8909;SDS011;4490;49.072;8.804;2023-05-20T03:31:57;5.50;;;4.47;;
8909;SDS011;4490;49.072;8.804;2023-05-20T03:34:23;5.10;;;4.60;;
8909;SDS011;4490;49.072;8.804;2023-05-20T03:36:49;7.00;;;5.23;;
8909;SDS011;4490;49.072;8.804;2023-05-20T03:39:15;5.20;;;4.70;;
8909;SDS011;4490;49.072;8.804;2023-05-20T03:41:41;6.30;;;5.13;;
8909;SDS011;4490;49.072;8.804;2023-05-20T03:44:06;6.53;;;4.53;;
8909;SDS011;4490;49.072;8.804;2023-05-20T03:46:32;5.10;;;4.60;;
8909;SDS011;4490;49.072;8.804;2023-05-20T03:48:58;7.60;;;5.43;;
8909;SDS011;4490;49.072;8.804;2023-05-20T03:51:25;6.93;;;4.80;;
8909;SDS011;4490;49.072;8.804;2023-05-20T03:53:52;5.33;;;4.80;;
8909;SDS011;4490;49.072;8.804;2023-05-20T03:56:17;5.60;;;4.60;;
8909;SDS011;4490;49.072;8.804;2023-05-20T03:58:43;5.10;;;4.70;;
8909;SDS011;4490;49.072;8.804;2023-05-20T04:01:09;7.30;;;5.50;;
8909;SDS011;4490;49.072;8.804;2023-05-20T04:03:37;6.03;;;5.27;;
8909;SDS011;4490;49.072;8.804;2023-05-20T04:06:02;6.17;;;5.30;;
8909;SDS011;4490;49.072;8.804;2023-05-20T04:08:28;5.27;;;4.70;;
8909;SDS011;4490;49.072;8.804;2023-05-20T04:10:54;7.27;;;5.50;;
8909;SDS011;4490;49.072;8.804;2023-05-20T04:13:21;5.73;;;5.10;;
8909;SDS011;4490;49.072;8.804;2023-05-20T04:15:46;6.70;;;5.17;;
8909;SDS011;4490;49.072;8.804;2023-05-20T04:18:12;6.47;;;5.07;;
8909;SDS011;4490;49.072;8.804;2023-05-20T04:20:38;9.43;;;5.07;;
8909;SDS011;4490;49.072;8.804;2023-05-20T04:23:05;7.17;;;5.10;;
8909;SDS011;4490;49.072;8.804;2023-05-20T04:25:31;6.43;;;4.93;;
8909;SDS011;4490;49.072;8.804;2023-05-20T04:27:57;5.30;;;4.77;;
8909;SDS011;4490;49.072;8.804;2023-05-20T04:30:23;6.20;;;5.03;;
8909;SDS011;4490;49.072;8.804;2023-05-20T04:32:49;6.30;;;4.90;;
8909;SDS011;4490;49.072;8.804;2023-05-20T04:35:15;5.33;;;4.83;;
8909;SDS011;4490;49.072;8.804;2023-05-20T04:37:41;6.80;;;4.90;;
8909;SDS011;4490;49.072;8.804;2023-05-20T04:40:08;5.23;;;4.83;;
8909;SDS011;4490;49.072;8.804;2023-05-20T04:42:36;7.77;;;5.30;;
8909;SDS011;4490;49.072;8.804;2023-05-20T04:45:02;7.37;;;5.30;;
8909;SDS011;4490;49.072;8.804;2023-05-20T04:47:29;5.93;;;5.30;;
8909;SDS011;4490;49.072;8.804;2023-05-20T04:49:56;6.00;;;4.97;;
8909;SDS011;4490;49.072;8.804;2023-05-20T04:52:24;7.77;;;4.90;;
8909;SDS011;4490;49.072;8.804;2023-05-20T04:54:50;7.60;;;5.90;;
8909;SDS011;4490;49.072;8.804;2023-05-20T04:57:16;6.30;;;5.20;;
8909;SDS011;4490;49.072;8.804;2023-05-20T04:59:48;6.10;;;5.23;;
8909;SDS011;4490;49.072;8.804;2023-05-20T05:02:14;6.93;;;5.23;;
8909;SDS011;4490;49.072;8.804;2023-05-20T05:04:39;6.97;;;5.40;;
8909;SDS011;4490;49.072;8.804;2023-05-20T05:07:05;7.57;;;5.40;;
8909;SDS011;4490;49.072;8.804;2023-05-20T05:09:31;5.77;;;5.17;;
8909;SDS011;4490;49.072;8.804;2023-05-20T05:11:56;7.10;;;5.23;;
8909;SDS011;4490;49.072;8.804;2023-05-20T05:14:22;5.60;;;5.10;;
8909;SDS011;4490;49.072;8.804;2023-05-20T05:16:47;8.30;;;5.30;;
8909;SDS011;4490;49.072;8.804;2023-05-20T05:19:13;7.27;;;5.33;;
8909;SDS011;4490;49.072;8.804;2023-05-20T05:21:39;6.10;;;5.00;;
8909;SDS011;4490;49.072;8.804;2023-05-20T05:24:06;7.57;;;5.67;;
8909;SDS011;4490;49.072;8.804;2023-05-20T05:26:31;6.03;;;4.73;;
8909;SDS011;4490;49.072;8.804;2023-05-20T05:28:57;6.17;;;5.13;;
8909;SDS011;4490;49.072;8.804;2023-05-20T05:31:23;6.77;;;5.13;;
8909;SDS011;4490;49.072;8.804;2023-05-20T05:33:48;6.47;;;5.60;;
8909;SDS011;4490;49.072;8.804;2023-05-20T05:36:14;5.73;;;5.23;;
8909;SDS011;4490;49.072;8.804;2023-05-20T05:38:40;6.83;;;5.37;;
8909;SDS011;4490;49.072;8.804;2023-05-20T05:41:06;7.27;;;5.40;;
8909;SDS011;4490;49.072;8.804;2023-05-20T05:43:32;5.90;;;5.37;;
8909;SDS011;4490;49.072;8.804;2023-05-20T05:45:57;5.67;;;5.17;;
8909;SDS011;4490;49.072;8.804;2023-05-20T05:48:23;7.13;;;5.90;;
8909;SDS011;4490;49.072;8.804;2023-05-20T05:50:48;8.00;;;5.30;;
8909;SDS011;4490;49.072;8.804;2023-05-20T05:53:14;6.93;;;5.73;;
8909;SDS011;4490;49.072;8.804;2023-05-20T05:55:40;7.10;;;5.50;;
8909;SDS011;4490;49.072;8.804;2023-05-20T05:58:06;6.27;;;5.67;;
8909;SDS011;4490;49.072;8.804;2023-05-20T06:00:31;7.87;;;5.70;;
8909;SDS011;4490;49.072;8.804;2023-05-20T06:02:57;7.03;;;5.57;;
8909;SDS011;4490;49.072;8.804;2023-05-20T06:05:23;6.00;;;5.27;;
8909;SDS011;4490;49.072;8.804;2023-05-20T06:07:48;7.47;;;5.63;;
8909;SDS011;4490;49.072;8.804;2023-05-20T06:10:14;7.17;;;5.73;;
8909;SDS011;4490;49.072;8.804;2023-05-20T06:12:40;5.90;;;5.37;;
8909;SDS011;4490;49.072;8.804;2023-05-20T06:15:05;6.43;;;5.83;;
8909;SDS011;4490;49.072;8.804;2023-05-20T06:17:32;7.20;;;5.40;;
8909;SDS011;4490;49.072;8.804;2023-05-20T06:19:57;7.53;;;5.57;;
8909;SDS011;4490;49.072;8.804;2023-05-20T06:22:24;6.53;;;5.13;;
8909;SDS011;4490;49.072;8.804;2023-05-20T06:24:49;5.27;;;4.77;;
8909;SDS011;4490;49.072;8.804;2023-05-20T06:27:15;6.47;;;5.30;;
8909;SDS011;4490;49.072;8.804;2023-05-20T06:29:40;6.10;;;5.40;;
8909;SDS011;4490;49.072;8.804;2023-05-20T06:32:07;5.70;;;5.20;;
8909;SDS011;4490;49.072;8.804;2023-05-20T06:34:33;6.03;;;4.93;;
8909;SDS011;4490;49.072;8.804;2023-05-20T06:36:58;7.17;;;5.30;;
8909;SDS011;4490;49.072;8.804;2023-05-20T06:39:24;8.87;;;5.93;;
8909;SDS011;4490;49.072;8.804;2023-05-20T06:41:49;6.10;;;5.60;;
8909;SDS011;4490;49.072;8.804;2023-05-20T06:44:16;6.13;;;5.60;;
8909;SDS011;4490;49.072;8.804;2023-05-20T06:46:42;6.87;;;5.53;;
8909;SDS011;4490;49.072;8.804;2023-05-20T06:49:08;6.47;;;5.63;;
8909;SDS011;4490;49.072;8.804;2023-05-20T06:51:34;6.63;;;5.93;;
8909;SDS011;4490;49.072;8.804;2023-05-20T06:53:59;5.67;;;5.13;;
8909;SDS011;4490;49.072;8.804;2023-05-20T06:56:25;6.37;;;5.77;;
8909;SDS011;4490;49.072;8.804;2023-05-20T06:58:51;8.90;;;5.97;;
8909;SDS011;4490;49.072;8.804;2023-05-20T07:01:16;8.17;;;6.50;;
8909;SDS011;4490;49.072;8.804;2023-05-20T07:03:42;6.00;;;5.40;;
8909;SDS011;4490;49.072;8.804;2023-05-20T07:06:08;6.97;;;5.80;;
8909;SDS011;4490;49.072;8.804;2023-05-20T07:08:34;6.60;;;5.87;;
8909;SDS011;4490;49.072;8.804;2023-05-20T07:11:00;8.13;;;6.00;;
8909;SDS011;4490;49.072;8.804;2023-05-20T07:13:25;6.57;;;5.80;;
8909;SDS011;4490;49.072;8.804;2023-05-20T07:15:51;8.63;;;5.73;;
8909;SDS011;4490;49.072;8.804;2023-05-20T07:18:17;7.37;;;6.40;;
8909;SDS011;4490;49.072;8.804;2023-05-20T07:20:43;7.83;;;6.47;;
8909;SDS011;4490;49.072;8.804;2023-05-20T07:23:09;6.37;;;5.77;;
8909;SDS011;4490;49.072;8.804;2023-05-20T07:25:35;7.37;;;6.43;;
8909;SDS011;4490;49.072;8.804;2023-05-20T07:28:01;7.30;;;6.10;;
8909;SDS011;4490;49.072;8.804;2023-05-20T07:30:26;6.63;;;5.93;;
8909;SDS011;4490;49.072;8.804;2023-05-20T07:32:52;6.37;;;5.77;;
8909;SDS011;4490;49.072;8.804;2023-05-20T07:35:18;7.03;;;6.20;;
8909;SDS011;4490;49.072;8.804;2023-05-20T07:37:43;6.77;;;6.03;;
8909;SDS011;4490;49.072;8.804;2023-05-20T07:40:09;9.70;;;6.10;;
8909;SDS011;4490;49.072;8.804;2023-05-20T07:42:35;6.60;;;5.90;;
8909;SDS011;4490;49.072;8.804;2023-05-20T07:45:01;6.60;;;6.00;;
8909;SDS011;4490;49.072;8.804;2023-05-20T07:47:27;8.37;;;6.53;;
8909;SDS011;4490;49.072;8.804;2023-05-20T07:49:53;6.67;;;5.87;;
8909;SDS011;4490;49.072;8.804;2023-05-20T07:52:18;6.83;;;6.13;;
8909;SDS011;4490;49.072;8.804;2023-05-20T07:54:44;6.20;;;5.60;;
8909;SDS011;4490;49.072;8.804;2023-05-20T07:57:10;6.80;;;6.10;;
8909;SDS011;4490;49.072;8.804;2023-05-20T07:59:35;6.37;;;5.77;;
8909;SDS011;4490;49.072;8.804;2023-05-20T08:02:01;6.97;;;5.77;;
8909;SDS011;4490;49.072;8.804;2023-05-20T08:04:27;8.37;;;5.80;;
8909;SDS011;4490;49.072;8.804;2023-05-20T08:06:52;6.33;;;5.40;;
8909;SDS011;4490;49.072;8.804;2023-05-20T08:09:19;7.47;;;6.03;;
8909;SDS011;4490;49.072;8.804;2023-05-20T08:11:44;6.47;;;5.80;;
8909;SDS011;4490;49.072;8.804;2023-05-20T08:14:10;6.80;;;6.10;;
8909;SDS011;4490;49.072;8.804;2023-05-20T08:16:35;6.60;;;5.90;;
8909;SDS011;4490;49.072;8.804;2023-05-20T08:19:01;6.32;;;5.82;;
8909;SDS011;4490;49.072;8.804;2023-05-20T08:21:27;6.70;;;6.10;;
8909;SDS011;4490;49.072;8.804;2023-05-20T08:23:53;6.93;;;6.22;;
8909;SDS011;4490;49.072;8.804;2023-05-20T08:26:19;6.75;;;6.05;;
8909;SDS011;4490;49.072;8.804;2023-05-20T08:28:45;6.80;;;6.15;;
8909;SDS011;4490;49.072;8.804;2023-05-20T08:31:12;7.70;;;6.18;;
8909;SDS011;4490;49.072;8.804;2023-05-20T08:33:38;7.05;;;6.30;;
8909;SDS011;4490;49.072;8.804;2023-05-20T08:36:04;7.73;;;6.40;;
8909;SDS011;4490;49.072;8.804;2023-05-20T08:38:30;6.90;;;6.23;;
8909;SDS011;4490;49.072;8.804;2023-05-20T08:40:56;8.95;;;6.32;;
8909;SDS011;4490;49.072;8.804;2023-05-20T08:43:22;7.18;;;6.55;;
8909;SDS011;4490;49.072;8.804;2023-05-20T08:45:49;6.57;;;5.97;;
8909;SDS011;4490;49.072;8.804;2023-05-20T08:48:16;7.32;;;6.18;;
8909;SDS011;4490;49.072;8.804;2023-05-20T08:50:43;9.25;;;6.88;;
8909;SDS011;4490;49.072;8.804;2023-05-20T08:53:13;7.43;;;6.60;;
8909;SDS011;4490;49.072;8.804;2023-05-20T08:55:43;6.80;;;6.03;;
8909;SDS011;4490;49.072;8.804;2023-05-20T08:58:11;6.97;;;6.28;;
8909;SDS011;4490;49.072;8.804;2023-05-20T09:00:39;16.17;;;9.68;;
8909;SDS011;4490;49.072;8.804;2023-05-20T09:03:05;7.55;;;6.32;;
8909;SDS011;4490;49.072;8.804;2023-05-20T09:05:32;7.30;;;6.20;;
8909;SDS011;4490;49.072;8.804;2023-05-20T09:08:08;6.45;;;5.80;;
8909;SDS011;4490;49.072;8.804;2023-05-20T09:10:35;6.72;;;5.93;;
8909;SDS011;4490;49.072;8.804;2023-05-20T09:13:04;10.27;;;6.05;;
8909;SDS011;4490;49.072;8.804;2023-05-20T09:15:31;15.00;;;7.53;;
8909;SDS011;4490;49.072;8.804;2023-05-20T09:18:01;7.05;;;6.40;;
8909;SDS011;4490;49.072;8.804;2023-05-20T09:20:27;6.25;;;5.68;;
8909;SDS011;4490;49.072;8.804;2023-05-20T09:22:57;9.57;;;7.70;;
8909;SDS011;4490;49.072;8.804;2023-05-20T09:25:26;8.05;;;6.20;;
8909;SDS011;4490;49.072;8.804;2023-05-20T09:27:53;6.93;;;6.20;;
8909;SDS011;4490;49.072;8.804;2023-05-20T09:30:19;10.88;;;6.90;;
8909;SDS011;4490;49.072;8.804;2023-05-20T09:32:55;7.00;;;6.30;;
8909;SDS011;4490;49.072;8.804;2023-05-20T09:35:24;6.95;;;6.25;;
8909;SDS011;4490;49.072;8.804;2023-05-20T09:37:55;7.38;;;6.15;;
8909;SDS011;4490;49.072;8.804;2023-05-20T09:40:24;6.82;;;6.15;;
8909;SDS011;4490;49.072;8.804;2023-05-20T09:42:56;6.20;;;5.60;;
8909;SDS011;4490;49.072;8.804;2023-05-20T09:45:27;6.38;;;5.78;;
8909;SDS011;4490;49.072;8.804;2023-05-20T09:47:53;6.70;;;6.00;;
8909;SDS011;4490;49.072;8.804;2023-05-20T09:50:20;6.75;;;6.15;;
8909;SDS011;4490;49.072;8.804;2023-05-20T09:52:49;7.00;;;6.30;;
8909;SDS011;4490;49.072;8.804;2023-05-20T09:55:16;6.60;;;6.00;;
8909;SDS011;4490;49.072;8.804;2023-05-20T09:57:43;6.60;;;5.60;;
8909;SDS011;4490;49.072;8.804;2023-05-20T10:00:10;6.03;;;5.53;;
8909;SDS011;4490;49.072;8.804;2023-05-20T10:02:42;7.30;;;6.22;;
8909;SDS011;4490;49.072;8.804;2023-05-20T10:05:11;8.55;;;6.00;;
8909;SDS011;4490;49.072;8.804;2023-05-20T10:15:47;6.78;;;6.10;;
8909;SDS011;4490;49.072;8.804;2023-05-20T10:20:52;6.47;;;5.88;;
8909;SDS011;4490;49.072;8.804;2023-05-20T10:23:26;6.60;;;5.95;;
8909;SDS011;4490;49.072;8.804;2023-05-20T10:25:53;6.88;;;5.60;;
8909;SDS011;4490;49.072;8.804;2023-05-20T10:28:36;6.55;;;5.82;;
8909;SDS011;4490;49.072;8.804;2023-05-20T10:31:14;6.65;;;5.88;;
8909;SDS011;4490;49.072;8.804;2023-05-20T10:33:42;6.40;;;5.90;;
8909;SDS011;4490;49.072;8.804;2023-05-20T10:36:09;6.53;;;5.90;;
8909;SDS011;4490;49.072;8.804;2023-05-20T10:38:50;8.40;;;5.90;;
8909;SDS011;4490;49.072;8.804;2023-05-20T10:41:20;7.13;;;5.68;;
8909;SDS011;4490;49.072;8.804;2023-05-20T10:43:57;6.78;;;6.15;;
8909;SDS011;4490;49.072;8.804;2023-05-20T10:46:24;6.55;;;5.95;;
8909;SDS011;4490;49.072;8.804;2023-05-20T10:48:50;6.57;;;5.97;;
8909;SDS011;4490;49.072;8.804;2023-05-20T10:51:15;10.70;;;6.20;;
8909;SDS011;4490;49.072;8.804;2023-05-20T10:53:44;5.95;;;5.45;;
8909;SDS011;4490;49.072;8.804;2023-05-20T10:56:17;6.30;;;5.70;;
8909;SDS011;4490;49.072;8.804;2023-05-20T10:58:43;6.97;;;6.00;;
8909;SDS011;4490;49.072;8.804;2023-05-20T11:01:09;6.28;;;5.78;;
8909;SDS011;4490;49.072;8.804;2023-05-20T11:03:36;6.93;;;5.93;;
8909;SDS011;4490;49.072;8.804;2023-05-20T11:06:48;6.65;;;6.10;;
8909;SDS011;4490;49.072;8.804;2023-05-20T11:09:01;7.20;;;5.95;;
8909;SDS011;4490;49.072;8.804;2023-05-20T11:11:30;8.70;;;6.07;;
8909;SDS011;4490;49.072;8.804;2023-05-20T11:13:56;6.55;;;5.97;;
8909;SDS011;4490;49.072;8.804;2023-05-20T11:16:21;5.97;;;5.43;;
8909;SDS011;4490;49.072;8.804;2023-05-20T11:18:48;5.97;;;5.47;;
8909;SDS011;4490;49.072;8.804;2023-05-20T11:21:14;6.60;;;6.00;;
8909;SDS011;4490;49.072;8.804;2023-05-20T11:23:40;5.95;;;5.43;;
8909;SDS011;4490;49.072;8.804;2023-05-20T11:26:06;6.47;;;5.88;;
8909;SDS011;4490;49.072;8.804;2023-05-20T11:28:31;9.23;;;6.38;;
8909;SDS011;4490;49.072;8.804;2023-05-20T11:31:00;6.72;;;6.03;;
8909;SDS011;4490;49.072;8.804;2023-05-20T11:33:26;6.30;;;5.78;;
8909;SDS011;4490;49.072;8.804;2023-05-20T11:35:51;6.93;;;5.65;;
8909;SDS011;4490;49.072;8.804;2023-05-20T11:38:18;6.00;;;5.50;;
8909;SDS011;4490;49.072;8.804;2023-05-20T11:40:46;6.05;;;5.45;;
8909;SDS011;4490;49.072;8.804;2023-05-20T11:43:19;7.07;;;6.47;;
8909;SDS011;4490;49.072;8.804;2023-05-20T11:45:46;6.22;;;5.63;;
8909;SDS011;4490;49.072;8.804;2023-05-20T11:48:17;8.18;;;7.47;;
8909;SDS011;4490;49.072;8.804;2023-05-20T11:50:44;7.63;;;6.75;;
8909;SDS011;4490;49.072;8.804;2023-05-20T11:53:18;9.60;;;6.20;;
8909;SDS011;4490;49.072;8.804;2023-05-20T11:58:24;6.50;;;5.93;;
8909;SDS011;4490;49.072;8.804;2023-05-20T12:00:51;6.90;;;6.28;;
8909;SDS011;4490;49.072;8.804;2023-05-20T12:03:17;6.30;;;5.80;;
8909;SDS011;4490;49.072;8.804;2023-05-20T12:05:43;6.68;;;6.05;;
8909;SDS011;4490;49.072;8.804;2023-05-20T12:08:09;9.07;;;6.25;;
8909;SDS011;4490;49.072;8.804;2023-05-20T12:10:35;6.80;;;6.20;;
8909;SDS011;4490;49.072;8.804;2023-05-20T12:13:04;6.90;;;6.30;;
8909;SDS011;4490;49.072;8.804;2023-05-20T12:15:35;6.78;;;6.18;;
8909;SDS011;4490;49.072;8.804;2023-05-20T12:18:00;6.05;;;5.55;;
8909;SDS011;4490;49.072;8.804;2023-05-20T12:20:26;7.82;;;6.05;;
8909;SDS011;4490;49.072;8.804;2023-05-20T12:22:52;8.75;;;6.78;;
8909;SDS011;4490;49.072;8.804;2023-05-20T12:25:18;8.43;;;6.40;;
8909;SDS011;4490;49.072;8.804;2023-05-20T12:27:46;6.50;;;5.90;;
8909;SDS011;4490;49.072;8.804;2023-05-20T12:30:16;6.78;;;6.13;;
8909;SDS011;4490;49.072;8.804;2023-05-20T12:32:43;6.68;;;5.90;;
8909;SDS011;4490;49.072;8.804;2023-05-20T12:35:09;7.05;;;6.45;;
8909;SDS011;4490;49.072;8.804;2023-05-20T12:37:35;6.75;;;6.10;;
8909;SDS011;4490;49.072;8.804;2023-05-20T12:40:02;6.97;;;6.38;;
8909;SDS011;4490;49.072;8.804;2023-05-20T12:42:39;6.60;;;6.10;;
8909;SDS011;4490;49.072;8.804;2023-05-20T12:45:05;6.70;;;6.10;;
8909;SDS011;4490;49.072;8.804;2023-05-20T12:47:32;7.47;;;6.85;;
8909;SDS011;4490;49.072;8.804;2023-05-20T12:49:58;12.50;;;6.90;;
8909;SDS011;4490;49.072;8.804;2023-05-20T12:52:24;17.45;;;7.43;;
8909;SDS011;4490;49.072;8.804;2023-05-20T12:54:50;7.47;;;6.43;;
8909;SDS011;4490;49.072;8.804;2023-05-20T12:57:17;8.02;;;6.63;;
8909;SDS011;4490;49.072;8.804;2023-05-20T12:59:43;6.57;;;6.07;;
8909;SDS011;4490;49.072;8.804;2023-05-20T13:02:09;7.15;;;6.35;;
8909;SDS011;4490;49.072;8.804;2023-05-20T13:04:35;7.20;;;6.47;;
8909;SDS011;4490;49.072;8.804;2023-05-20T13:07:00;7.97;;;6.03;;
8909;SDS011;4490;49.072;8.804;2023-05-20T13:09:27;7.05;;;6.20;;
8909;SDS011;4490;49.072;8.804;2023-05-20T13:11:53;6.90;;;6.30;;
8909;SDS011;4490;49.072;8.804;2023-05-20T13:14:18;6.82;;;6.32;;
8909;SDS011;4490;49.072;8.804;2023-05-20T13:16:45;7.35;;;6.55;;
8909;SDS011;4490;49.072;8.804;2023-05-20T13:19:12;6.72;;;6.13;;
8909;SDS011;4490;49.072;8.804;2023-05-20T13:21:38;6.93;;;6.32;;
8909;SDS011;4490;49.072;8.804;2023-05-20T13:24:03;7.25;;;6.25;;
8909;SDS011;4490;49.072;8.804;2023-05-20T13:26:29;6.18;;;5.55;;
8909;SDS011;4490;49.072;8.804;2023-05-20T13:28:55;7.20;;;6.55;;
8909;SDS011;4490;49.072;8.804;2023-05-20T13:31:20;7.25;;;6.55;;
8909;SDS011;4490;49.072;8.804;2023-05-20T13:33:46;7.18;;;6.20;;
8909;SDS011;4490;49.072;8.804;2023-05-20T13:36:12;9.88;;;6.18;;
8909;SDS011;4490;49.072;8.804;2023-05-20T13:38:37;6.82;;;6.13;;
8909;SDS011;4490;49.072;8.804;2023-05-20T13:41:03;7.30;;;6.68;;
8909;SDS011;4490;49.072;8.804;2023-05-20T13:43:30;6.50;;;6.00;;
8909;SDS011;4490;49.072;8.804;2023-05-20T13:45:57;6.63;;;5.97;;
8909;SDS011;4490;49.072;8.804;2023-05-20T13:48:22;7.70;;;6.20;;
8909;SDS011;4490;49.072;8.804;2023-05-20T13:50:48;7.55;;;6.85;;
8909;SDS011;4490;49.072;8.804;2023-05-20T13:53:13;6.88;;;6.25;;
8909;SDS011;4490;49.072;8.804;2023-05-20T13:55:39;6.55;;;6.00;;
8909;SDS011;4490;49.072;8.804;2023-05-20T13:58:05;6.72;;;6.18;;
8909;SDS011;4490;49.072;8.804;2023-05-20T14:00:35;9.80;;;6.82;;
8909;SDS011;4490;49.072;8.804;2023-05-20T14:03:01;6.90;;;6.03;;
8909;SDS011;4490;49.072;8.804;2023-05-20T14:05:28;7.10;;;6.45;;
8909;SDS011;4490;49.072;8.804;2023-05-20T14:07:55;6.50;;;5.90;;
8909;SDS011;4490;49.072;8.804;2023-05-20T14:10:20;7.30;;;6.60;;
8909;SDS011;4490;49.072;8.804;2023-05-20T14:12:46;7.07;;;6.47;;
8909;SDS011;4490;49.072;8.804;2023-05-20T14:15:12;6.32;;;5.82;;
8909;SDS011;4490;49.072;8.804;2023-05-20T14:17:38;6.65;;;6.05;;
8909;SDS011;4490;49.072;8.804;2023-05-20T14:20:03;6.78;;;6.20;;
8909;SDS011;4490;49.072;8.804;2023-05-20T14:22:30;7.18;;;6.47;;
8909;SDS011;4490;49.072;8.804;2023-05-20T14:24:55;7.63;;;6.38;;
8909;SDS011;4490;49.072;8.804;2023-05-20T14:27:21;7.32;;;6.57;;
8909;SDS011;4490;49.072;8.804;2023-05-20T14:29:47;6.82;;;6.22;;
8909;SDS011;4490;49.072;8.804;2023-05-20T14:32:13;6.78;;;6.18;;
8909;SDS011;4490;49.072;8.804;2023-05-20T14:34:38;7.20;;;6.10;;
8909;SDS011;4490;49.072;8.804;2023-05-20T14:37:04;6.95;;;6.30;;
8909;SDS011;4490;49.072;8.804;2023-05-20T14:39:33;7.03;;;6.30;;
8909;SDS011;4490;49.072;8.804;2023-05-20T14:42:00;7.03;;;5.85;;
8909;SDS011;4490;49.072;8.804;2023-05-20T14:44:27;6.50;;;5.88;;
8909;SDS011;4490;49.072;8.804;2023-05-20T14:46:52;7.50;;;6.80;;
8909;SDS011;4490;49.072;8.804;2023-05-20T14:49:18;6.28;;;5.78;;
8909;SDS011;4490;49.072;8.804;2023-05-20T14:51:44;6.95;;;6.28;;
8909;SDS011;4490;49.072;8.804;2023-05-20T14:54:09;6.65;;;6.05;;
8909;SDS011;4490;49.072;8.804;2023-05-20T14:56:35;6.80;;;6.15;;
8909;SDS011;4490;49.072;8.804;2023-05-20T14:59:01;6.50;;;5.90;;
8909;SDS011;4490;49.072;8.804;2023-05-20T15:01:26;6.72;;;6.13;;
8909;SDS011;4490;49.072;8.804;2023-05-20T15:03:52;7.50;;;6.28;;
8909;SDS011;4490;49.072;8.804;2023-05-20T15:06:18;6.93;;;6.32;;
8909;SDS011;4490;49.072;8.804;2023-05-20T15:08:43;7.80;;;6.30;;
8909;SDS011;4490;49.072;8.804;2023-05-20T15:11:09;7.32;;;6.30;;
8909;SDS011;4490;49.072;8.804;2023-05-20T15:13:35;7.35;;;5.90;;
8909;SDS011;4490;49.072;8.804;2023-05-20T15:16:00;9.30;;;6.43;;
8909;SDS011;4490;49.072;8.804;2023-05-20T15:18:26;7.63;;;6.93;;
8909;SDS011;4490;49.072;8.804;2023-05-20T15:20:52;8.38;;;6.20;;
8909;SDS011;4490;49.072;8.804;2023-05-20T15:23:17;7.15;;;6.55;;
8909;SDS011;4490;49.072;8.804;2023-05-20T15:25:43;7.35;;;6.70;;
8909;SDS011;4490;49.072;8.804;2023-05-20T15:28:08;7.38;;;6.68;;